sensor_id;sensor_type;location;lat;lon;timestamp;P1;durP1;ratioP1;P2;durP2;ratioP2
40931;SDS011;36257;46.052;12.540;2023-08-24T00:02:05;7.22;;;6.15;;
40931;SDS011;36257;46.052;12.540;2023-08-24T00:04:31;6.88;;;5.63;;
40931;SDS011;36257;46.052;12.540;2023-08-24T00:06:57;6.22;;;5.60;;
40931;SDS011;36257;46.052;12.540;2023-08-24T00:09:23;6.38;;;5.68;;
40931;SDS011;36257;46.052;12.540;2023-08-24T00:11:49;8.10;;;6.00;;
40931;SDS011;36257;46.052;12.540;2023-08-24T00:14:15;8.05;;;6.00;;
40931;SDS011;36257;46.052;12.540;2023-08-24T00:16:42;6.57;;;6.00;;
40931;SDS011;36257;46.052;12.540;2023-08-24T00:19:07;9.02;;;6.00;;
40931;SDS011;36257;46.052;12.540;2023-08-24T00:21:33;5.90;;;5.40;;
40931;SDS011;36257;46.052;12.540;2023-08-24T00:23:59;7.95;;;5.53;;
40931;SDS011;36257;46.052;12.540;2023-08-24T00:26:24;6.72;;;5.47;;
40931;SDS011;36257;46.052;12.540;2023-08-24T00:28:50;5.93;;;5.30;;
40931;SDS011;36257;46.052;12.540;2023-08-24T00:31:16;9.95;;;6.45;;
40931;SDS011;36257;46.052;12.540;2023-08-24T00:33:42;9.50;;;6.03;;
40931;SDS011;36257;46.052;12.540;2023-08-24T00:36:08;7.15;;;6.45;;
40931;SDS011;36257;46.052;12.540;2023-08-24T00:38:34;9.13;;;5.65;;
40931;SDS011;36257;46.052;12.540;2023-08-24T00:41:00;8.73;;;5.68;;
40931;SDS011;36257;46.052;12.540;2023-08-24T00:43:26;7.22;;;5.63;;
40931;SDS011;36257;46.052;12.540;2023-08-24T00:45:52;6.35;;;5.28;;
40931;SDS011;36257;46.052;12.540;2023-08-24T00:48:20;8.43;;;6.03;;
40931;SDS011;36257;46.052;12.540;2023-08-24T00:50:51;7.78;;;5.00;;
40931;SDS011;36257;46.052;12.540;2023-08-24T00:53:18;6.32;;;5.22;;
40931;SDS011;36257;46.052;12.540;2023-08-24T00:55:44;7.88;;;5.68;;
40931;SDS011;36257;46.052;12.540;2023-08-24T00:58:11;8.38;;;5.90;;
40931;SDS011;36257;46.052;12.540;2023-08-24T01:03:04;5.43;;;4.93;;
40931;SDS011;36257;46.052;12.540;2023-08-24T01:05:30;6.50;;;5.88;;
40931;SDS011;36257;46.052;12.540;2023-08-24T01:07:55;7.22;;;5.70;;
40931;SDS011;36257;46.052;12.540;2023-08-24T01:10:21;5.72;;;5.22;;
40931;SDS011;36257;46.052;12.540;2023-08-24T01:17:58;7.00;;;5.63;;
40931;SDS011;36257;46.052;12.540;2023-08-24T01:20:29;7.05;;;5.50;;
40931;SDS011;36257;46.052;12.540;2023-08-24T01:28:23;7.38;;;5.78;;
40931;SDS011;36257;46.052;12.540;2023-08-24T01:30:49;5.88;;;5.30;;
40931;SDS011;36257;46.052;12.540;2023-08-24T01:33:15;7.03;;;6.15;;
40931;SDS011;36257;46.052;12.540;2023-08-24T01:35:41;6.63;;;5.22;;
40931;SDS011;36257;46.052;12.540;2023-08-24T01:38:07;6.18;;;5.30;;
40931;SDS011;36257;46.052;12.540;2023-08-24T01:40:59;8.20;;;6.03;;
40931;SDS011;36257;46.052;12.540;2023-08-24T01:43:39;5.70;;;5.20;;
40931;SDS011;36257;46.052;12.540;2023-08-24T01:46:06;6.75;;;5.68;;
40931;SDS011;36257;46.052;12.540;2023-08-24T01:48:32;6.15;;;5.63;;
40931;SDS011;36257;46.052;12.540;2023-08-24T01:50:59;7.22;;;5.90;;
40931;SDS011;36257;46.052;12.540;2023-08-24T01:53:27;6.68;;;5.50;;
40931;SDS011;36257;46.052;12.540;2023-08-24T01:55:55;5.80;;;5.30;;
40931;SDS011;36257;46.052;12.540;2023-08-24T01:58:21;8.27;;;6.03;;
40931;SDS011;36257;46.052;12.540;2023-08-24T02:00:47;6.13;;;5.60;;
40931;SDS011;36257;46.052;12.540;2023-08-24T02:03:12;6.70;;;5.95;;
40931;SDS011;36257;46.052;12.540;2023-08-24T02:05:38;9.20;;;6.28;;
40931;SDS011;36257;46.052;12.540;2023-08-24T02:08:04;11.68;;;6.85;;
40931;SDS011;36257;46.052;12.540;2023-08-24T02:10:29;9.68;;;5.82;;
40931;SDS011;36257;46.052;12.540;2023-08-24T02:12:55;7.70;;;6.25;;
40931;SDS011;36257;46.052;12.540;2023-08-24T02:15:21;6.70;;;5.93;;
40931;SDS011;36257;46.052;12.540;2023-08-24T02:17:47;7.40;;;5.63;;
40931;SDS011;36257;46.052;12.540;2023-08-24T02:20:13;7.53;;;6.18;;
40931;SDS011;36257;46.052;12.540;2023-08-24T02:22:39;7.95;;;6.75;;
40931;SDS011;36257;46.052;12.540;2023-08-24T02:25:05;7.00;;;6.35;;
40931;SDS011;36257;46.052;12.540;2023-08-24T02:27:34;7.80;;;7.00;;
40931;SDS011;36257;46.052;12.540;2023-08-24T02:29:59;10.32;;;6.32;;
40931;SDS011;36257;46.052;12.540;2023-08-24T02:32:25;7.47;;;6.68;;
40931;SDS011;36257;46.052;12.540;2023-08-24T02:34:51;7.50;;;6.78;;
40931;SDS011;36257;46.052;12.540;2023-08-24T02:37:16;7.43;;;6.82;;
40931;SDS011;36257;46.052;12.540;2023-08-24T02:39:42;11.05;;;7.47;;
40931;SDS011;36257;46.052;12.540;2023-08-24T02:42:09;8.90;;;6.50;;
40931;SDS011;36257;46.052;12.540;2023-08-24T02:44:35;7.93;;;7.05;;
40931;SDS011;36257;46.052;12.540;2023-08-24T02:47:00;11.05;;;6.63;;
40931;SDS011;36257;46.052;12.540;2023-08-24T02:49:26;7.60;;;6.50;;
40931;SDS011;36257;46.052;12.540;2023-08-24T02:51:51;6.78;;;6.07;;
40931;SDS011;36257;46.052;12.540;2023-08-24T02:54:17;8.80;;;7.00;;
40931;SDS011;36257;46.052;12.540;2023-08-24T02:56:43;9.52;;;7.00;;
40931;SDS011;36257;46.052;12.540;2023-08-24T02:59:08;7.47;;;6.80;;
40931;SDS011;36257;46.052;12.540;2023-08-24T03:01:34;9.07;;;7.18;;
40931;SDS011;36257;46.052;12.540;2023-08-24T03:04:03;8.00;;;6.80;;
40931;SDS011;36257;46.052;12.540;2023-08-24T03:06:30;9.68;;;7.03;;
40931;SDS011;36257;46.052;12.540;2023-08-24T03:08:56;7.80;;;7.10;;
40931;SDS011;36257;46.052;12.540;2023-08-24T03:11:21;7.43;;;6.63;;
40931;SDS011;36257;46.052;12.540;2023-08-24T03:13:47;8.50;;;7.05;;
40931;SDS011;36257;46.052;12.540;2023-08-24T03:16:13;8.93;;;6.95;;
40931;SDS011;36257;46.052;12.540;2023-08-24T03:18:38;12.80;;;6.90;;
40931;SDS011;36257;46.052;12.540;2023-08-24T03:21:05;7.13;;;6.43;;
40931;SDS011;36257;46.052;12.540;2023-08-24T03:23:31;8.65;;;6.60;;
40931;SDS011;36257;46.052;12.540;2023-08-24T03:25:57;10.07;;;6.97;;
40931;SDS011;36257;46.052;12.540;2023-08-24T03:28:23;7.40;;;6.77;;
40931;SDS011;36257;46.052;12.540;2023-08-24T03:30:50;8.82;;;6.82;;
40931;SDS011;36257;46.052;12.540;2023-08-24T03:33:17;8.40;;;7.05;;
40931;SDS011;36257;46.052;12.540;2023-08-24T03:35:43;9.02;;;7.05;;
40931;SDS011;36257;46.052;12.540;2023-08-24T03:38:09;7.95;;;7.15;;
40931;SDS011;36257;46.052;12.540;2023-08-24T03:40:34;7.93;;;6.68;;
40931;SDS011;36257;46.052;12.540;2023-08-24T03:43:01;8.98;;;7.68;;
40931;SDS011;36257;46.052;12.540;2023-08-24T03:45:27;8.88;;;7.28;;
40931;SDS011;36257;46.052;12.540;2023-08-24T03:47:53;13.75;;;7.22;;
40931;SDS011;36257;46.052;12.540;2023-08-24T03:50:19;8.48;;;6.88;;
40931;SDS011;36257;46.052;12.540;2023-08-24T03:52:45;7.50;;;6.80;;
40931;SDS011;36257;46.052;12.540;2023-08-24T03:55:10;8.30;;;7.47;;
40931;SDS011;36257;46.052;12.540;2023-08-24T03:57:36;8.43;;;7.20;;
40931;SDS011;36257;46.052;12.540;2023-08-24T04:00:03;7.63;;;6.93;;
40931;SDS011;36257;46.052;12.540;2023-08-24T04:02:32;8.88;;;6.97;;
40931;SDS011;36257;46.052;12.540;2023-08-24T04:04:57;8.95;;;7.30;;
40931;SDS011;36257;46.052;12.540;2023-08-24T04:07:23;8.48;;;6.90;;
40931;SDS011;36257;46.052;12.540;2023-08-24T04:09:49;9.00;;;7.25;;
40931;SDS011;36257;46.052;12.540;2023-08-24T04:12:14;8.02;;;6.68;;
40931;SDS011;36257;46.052;12.540;2023-08-24T04:14:40;7.35;;;6.65;;
40931;SDS011;36257;46.052;12.540;2023-08-24T04:17:05;7.20;;;6.50;;
40931;SDS011;36257;46.052;12.540;2023-08-24T04:19:31;7.35;;;6.60;;
40931;SDS011;36257;46.052;12.540;2023-08-24T04:21:57;7.35;;;6.65;;
40931;SDS011;36257;46.052;12.540;2023-08-24T04:24:22;9.18;;;7.43;;
40931;SDS011;36257;46.052;12.540;2023-08-24T04:29:16;8.07;;;7.25;;
40931;SDS011;36257;46.052;12.540;2023-08-24T04:31:42;7.97;;;7.28;;
40931;SDS011;36257;46.052;12.540;2023-08-24T04:34:07;9.38;;;8.02;;
40931;SDS011;36257;46.052;12.540;2023-08-24T04:36:34;8.80;;;7.32;;
40931;SDS011;36257;46.052;12.540;2023-08-24T04:39:00;7.88;;;7.13;;
40931;SDS011;36257;46.052;12.540;2023-08-24T04:41:26;9.52;;;7.00;;
40931;SDS011;36257;46.052;12.540;2023-08-24T04:43:52;9.05;;;7.25;;
40931;SDS011;36257;46.052;12.540;2023-08-24T04:46:19;8.85;;;7.40;;
40931;SDS011;36257;46.052;12.540;2023-08-24T04:48:45;8.20;;;7.43;;
40931;SDS011;36257;46.052;12.540;2023-08-24T04:51:11;11.93;;;7.97;;
40931;SDS011;36257;46.052;12.540;2023-08-24T04:53:36;9.48;;;7.80;;
40931;SDS011;36257;46.052;12.540;2023-08-24T04:56:02;9.15;;;6.85;;
40931;SDS011;36257;46.052;12.540;2023-08-24T04:58:27;9.80;;;6.88;;
40931;SDS011;36257;46.052;12.540;2023-08-24T05:00:53;7.75;;;7.05;;
40931;SDS011;36257;46.052;12.540;2023-08-24T05:03:20;7.93;;;7.22;;
40931;SDS011;36257;46.052;12.540;2023-08-24T05:05:46;7.68;;;6.82;;
40931;SDS011;36257;46.052;12.540;2023-08-24T05:08:12;8.60;;;7.50;;
40931;SDS011;36257;46.052;12.540;2023-08-24T05:10:38;11.90;;;7.90;;
40931;SDS011;36257;46.052;12.540;2023-08-24T05:13:04;9.77;;;7.50;;
40931;SDS011;36257;46.052;12.540;2023-08-24T05:15:30;11.13;;;7.10;;
40931;SDS011;36257;46.052;12.540;2023-08-24T05:17:55;7.53;;;6.80;;
40931;SDS011;36257;46.052;12.540;2023-08-24T05:20:24;11.02;;;7.35;;
40931;SDS011;36257;46.052;12.540;2023-08-24T05:22:50;8.82;;;6.70;;
40931;SDS011;36257;46.052;12.540;2023-08-24T05:25:16;12.40;;;6.80;;
40931;SDS011;36257;46.052;12.540;2023-08-24T05:27:42;10.65;;;6.28;;
40931;SDS011;36257;46.052;12.540;2023-08-24T05:30:08;7.57;;;6.88;;
40931;SDS011;36257;46.052;12.540;2023-08-24T05:32:34;7.70;;;6.90;;
40931;SDS011;36257;46.052;12.540;2023-08-24T05:35:04;7.88;;;7.18;;
40931;SDS011;36257;46.052;12.540;2023-08-24T05:37:30;7.40;;;6.70;;
40931;SDS011;36257;46.052;12.540;2023-08-24T05:39:56;8.82;;;6.85;;
40931;SDS011;36257;46.052;12.540;2023-08-24T06:03:04;9.57;;;7.20;;
40931;SDS011;36257;46.052;12.540;2023-08-24T06:05:30;7.68;;;6.88;;
40931;SDS011;36257;46.052;12.540;2023-08-24T06:07:56;7.63;;;6.07;;
40931;SDS011;36257;46.052;12.540;2023-08-24T06:10:22;8.98;;;6.95;;
40931;SDS011;36257;46.052;12.540;2023-08-24T06:12:47;7.45;;;6.45;;
40931;SDS011;36257;46.052;12.540;2023-08-24T06:15:13;13.35;;;7.65;;
40931;SDS011;36257;46.052;12.540;2023-08-24T06:17:39;10.88;;;7.35;;
40931;SDS011;36257;46.052;12.540;2023-08-24T06:20:04;11.73;;;7.70;;
40931;SDS011;36257;46.052;12.540;2023-08-24T06:22:30;11.55;;;8.50;;
40931;SDS011;36257;46.052;12.540;2023-08-24T06:24:56;8.77;;;7.93;;
40931;SDS011;36257;46.052;12.540;2023-08-24T06:27:25;10.50;;;7.88;;
40931;SDS011;36257;46.052;12.540;2023-08-24T06:29:51;8.82;;;7.35;;
40931;SDS011;36257;46.052;12.540;2023-08-24T06:32:16;10.40;;;7.45;;
40931;SDS011;36257;46.052;12.540;2023-08-24T06:34:42;13.98;;;7.38;;
40931;SDS011;36257;46.052;12.540;2023-08-24T06:37:08;10.05;;;7.10;;
40931;SDS011;36257;46.052;12.540;2023-08-24T06:39:33;7.57;;;6.88;;
40931;SDS011;36257;46.052;12.540;2023-08-24T06:41:59;7.07;;;6.47;;
40931;SDS011;36257;46.052;12.540;2023-08-24T06:44:25;8.65;;;6.90;;
40931;SDS011;36257;46.052;12.540;2023-08-24T06:46:50;8.75;;;7.15;;
40931;SDS011;36257;46.052;12.540;2023-08-24T06:49:16;8.82;;;6.72;;
40931;SDS011;36257;46.052;12.540;2023-08-24T06:51:41;8.50;;;7.20;;
40931;SDS011;36257;46.052;12.540;2023-08-24T06:54:07;10.32;;;7.57;;
40931;SDS011;36257;46.052;12.540;2023-08-24T06:56:32;8.98;;;7.00;;
40931;SDS011;36257;46.052;12.540;2023-08-24T06:58:58;8.75;;;7.95;;
40931;SDS011;36257;46.052;12.540;2023-08-24T07:01:24;10.15;;;7.95;;
40931;SDS011;36257;46.052;12.540;2023-08-24T07:03:50;7.57;;;6.88;;
40931;SDS011;36257;46.052;12.540;2023-08-24T07:06:16;9.95;;;7.57;;
40931;SDS011;36257;46.052;12.540;2023-08-24T07:08:42;8.30;;;7.50;;
40931;SDS011;36257;46.052;12.540;2023-08-24T07:11:07;9.05;;;7.38;;
40931;SDS011;36257;46.052;12.540;2023-08-24T07:13:33;7.90;;;7.10;;
40931;SDS011;36257;46.052;12.540;2023-08-24T07:15:59;8.52;;;7.25;;
40931;SDS011;36257;46.052;12.540;2023-08-24T07:18:28;7.97;;;6.97;;
40931;SDS011;36257;46.052;12.540;2023-08-24T07:20:54;7.95;;;7.22;;
40931;SDS011;36257;46.052;12.540;2023-08-24T07:23:19;7.10;;;6.50;;
40931;SDS011;36257;46.052;12.540;2023-08-24T07:25:45;7.80;;;7.10;;
40931;SDS011;36257;46.052;12.540;2023-08-24T07:28:11;10.93;;;7.43;;
40931;SDS011;36257;46.052;12.540;2023-08-24T07:30:36;9.20;;;7.95;;
40931;SDS011;36257;46.052;12.540;2023-08-24T07:33:02;12.70;;;7.22;;
40931;SDS011;36257;46.052;12.540;2023-08-24T07:35:28;8.48;;;7.68;;
40931;SDS011;36257;46.052;12.540;2023-08-24T07:37:54;10.57;;;7.30;;
40931;SDS011;36257;46.052;12.540;2023-08-24T07:40:19;7.45;;;6.43;;
40931;SDS011;36257;46.052;12.540;2023-08-24T07:42:49;10.13;;;6.70;;
40931;SDS011;36257;46.052;12.540;2023-08-24T07:45:18;11.48;;;7.13;;
40931;SDS011;36257;46.052;12.540;2023-08-24T07:47:43;7.63;;;6.55;;
40931;SDS011;36257;46.052;12.540;2023-08-24T07:50:09;6.95;;;6.40;;
40931;SDS011;36257;46.052;12.540;2023-08-24T07:52:37;7.15;;;6.47;;
40931;SDS011;36257;46.052;12.540;2023-08-24T07:55:03;7.53;;;6.60;;
40931;SDS011;36257;46.052;12.540;2023-08-24T07:57:30;7.53;;;6.82;;
40931;SDS011;36257;46.052;12.540;2023-08-24T07:59:57;8.23;;;7.45;;
40931;SDS011;36257;46.052;12.540;2023-08-24T08:02:23;8.20;;;6.88;;
40931;SDS011;36257;46.052;12.540;2023-08-24T08:04:48;10.50;;;6.50;;
40931;SDS011;36257;46.052;12.540;2023-08-24T08:07:14;11.02;;;7.72;;
40931;SDS011;36257;46.052;12.540;2023-08-24T08:09:40;8.15;;;6.13;;
40931;SDS011;36257;46.052;12.540;2023-08-24T08:12:05;10.43;;;7.57;;
40931;SDS011;36257;46.052;12.540;2023-08-24T08:14:31;14.05;;;7.60;;
40931;SDS011;36257;46.052;12.540;2023-08-24T08:16:57;8.18;;;6.68;;
40931;SDS011;36257;46.052;12.540;2023-08-24T08:19:22;7.00;;;6.30;;
40931;SDS011;36257;46.052;12.540;2023-08-24T08:24:20;8.00;;;6.70;;
40931;SDS011;36257;46.052;12.540;2023-08-24T08:26:46;11.93;;;8.00;;
40931;SDS011;36257;46.052;12.540;2023-08-24T08:31:47;10.43;;;7.13;;
40931;SDS011;36257;46.052;12.540;2023-08-24T08:34:13;9.07;;;7.10;;
40931;SDS011;36257;46.052;12.540;2023-08-24T08:36:39;8.38;;;7.07;;
40931;SDS011;36257;46.052;12.540;2023-08-24T08:39:05;10.00;;;7.10;;
40931;SDS011;36257;46.052;12.540;2023-08-24T08:41:32;9.80;;;6.80;;
40931;SDS011;36257;46.052;12.540;2023-08-24T08:44:04;14.13;;;8.65;;
40931;SDS011;36257;46.052;12.540;2023-08-24T08:46:32;9.15;;;7.68;;
40931;SDS011;36257;46.052;12.540;2023-08-24T08:48:59;12.18;;;7.32;;
40931;SDS011;36257;46.052;12.540;2023-08-24T08:51:26;9.55;;;8.32;;
40931;SDS011;36257;46.052;12.540;2023-08-24T08:53:53;8.50;;;7.32;;
40931;SDS011;36257;46.052;12.540;2023-08-24T08:56:19;10.80;;;6.55;;
40931;SDS011;36257;46.052;12.540;2023-08-24T08:58:46;9.45;;;7.88;;
40931;SDS011;36257;46.052;12.540;2023-08-24T09:03:48;8.70;;;7.78;;
40931;SDS011;36257;46.052;12.540;2023-08-24T09:06:14;8.00;;;7.30;;
40931;SDS011;36257;46.052;12.540;2023-08-24T09:08:39;7.47;;;6.73;;
40931;SDS011;36257;46.052;12.540;2023-08-24T09:11:05;11.47;;;7.47;;
40931;SDS011;36257;46.052;12.540;2023-08-24T09:13:33;7.88;;;7.10;;
40931;SDS011;36257;46.052;12.540;2023-08-24T09:16:05;7.40;;;6.70;;
40931;SDS011;36257;46.052;12.540;2023-08-24T09:18:38;7.68;;;6.15;;
40931;SDS011;36257;46.052;12.540;2023-08-24T09:21:12;8.27;;;6.40;;
40931;SDS011;36257;46.052;12.540;2023-08-24T09:23:46;7.78;;;6.53;;
40931;SDS011;36257;46.052;12.540;2023-08-24T09:26:28;9.60;;;6.40;;
40931;SDS011;36257;46.052;12.540;2023-08-24T09:28:55;9.32;;;6.28;;
40931;SDS011;36257;46.052;12.540;2023-08-24T09:31:21;6.43;;;5.83;;
40931;SDS011;36257;46.052;12.540;2023-08-24T09:33:47;8.38;;;6.38;;
40931;SDS011;36257;46.052;12.540;2023-08-24T09:36:13;9.03;;;6.63;;
40931;SDS011;36257;46.052;12.540;2023-08-24T09:38:45;7.28;;;6.40;;
40931;SDS011;36257;46.052;12.540;2023-08-24T09:41:12;9.40;;;6.22;;
40931;SDS011;36257;46.052;12.540;2023-08-24T09:43:39;6.43;;;5.30;;
40931;SDS011;36257;46.052;12.540;2023-08-24T09:46:05;9.40;;;6.40;;
40931;SDS011;36257;46.052;12.540;2023-08-24T09:48:33;6.53;;;5.90;;
40931;SDS011;36257;46.052;12.540;2023-08-24T09:50:58;6.57;;;5.97;;
40931;SDS011;36257;46.052;12.540;2023-08-24T09:53:30;7.30;;;5.97;;
40931;SDS011;36257;46.052;12.540;2023-08-24T09:55:59;5.75;;;5.13;;
40931;SDS011;36257;46.052;12.540;2023-08-24T09:58:26;6.38;;;5.68;;
40931;SDS011;36257;46.052;12.540;2023-08-24T10:00:52;6.55;;;5.95;;
40931;SDS011;36257;46.052;12.540;2023-08-24T10:03:19;10.18;;;6.30;;
40931;SDS011;36257;46.052;12.540;2023-08-24T10:05:56;7.85;;;6.15;;
40931;SDS011;36257;46.052;12.540;2023-08-24T10:08:34;8.45;;;5.55;;
40931;SDS011;36257;46.052;12.540;2023-08-24T10:11:01;6.88;;;6.18;;
40931;SDS011;36257;46.052;12.540;2023-08-24T10:16:06;7.10;;;6.25;;
40931;SDS011;36257;46.052;12.540;2023-08-24T10:18:33;6.28;;;5.68;;
40931;SDS011;36257;46.052;12.540;2023-08-24T10:20:59;6.50;;;5.90;;
40931;SDS011;36257;46.052;12.540;2023-08-24T10:23:27;7.07;;;6.38;;
40931;SDS011;36257;46.052;12.540;2023-08-24T10:25:54;6.82;;;5.82;;
40931;SDS011;36257;46.052;12.540;2023-08-24T10:28:20;7.68;;;5.80;;
40931;SDS011;36257;46.052;12.540;2023-08-24T10:30:50;10.30;;;5.72;;
40931;SDS011;36257;46.052;12.540;2023-08-24T10:33:17;9.05;;;6.18;;
40931;SDS011;36257;46.052;12.540;2023-08-24T10:35:44;6.28;;;5.75;;
40931;SDS011;36257;46.052;12.540;2023-08-24T10:38:22;7.53;;;5.82;;
40931;SDS011;36257;46.052;12.540;2023-08-24T10:40:50;7.35;;;5.68;;
40931;SDS011;36257;46.052;12.540;2023-08-24T10:48:27;6.65;;;6.05;;
40931;SDS011;36257;46.052;12.540;2023-08-24T10:53:44;7.25;;;6.10;;
40931;SDS011;36257;46.052;12.540;2023-08-24T10:56:18;6.75;;;5.60;;
40931;SDS011;36257;46.052;12.540;2023-08-24T10:58:44;8.13;;;6.40;;
40931;SDS011;36257;46.052;12.540;2023-08-24T11:03:50;6.63;;;5.97;;
40931;SDS011;36257;46.052;12.540;2023-08-24T11:06:20;8.00;;;5.72;;
40931;SDS011;36257;46.052;12.540;2023-08-24T11:08:47;7.90;;;6.00;;
40931;SDS011;36257;46.052;12.540;2023-08-24T11:11:20;7.55;;;5.60;;
40931;SDS011;36257;46.052;12.540;2023-08-24T11:16:47;6.32;;;5.72;;
40931;SDS011;36257;46.052;12.540;2023-08-24T11:21:40;7.60;;;5.85;;
40931;SDS011;36257;46.052;12.540;2023-08-24T11:24:09;6.60;;;5.95;;
40931;SDS011;36257;46.052;12.540;2023-08-24T11:26:39;6.95;;;6.00;;
40931;SDS011;36257;46.052;12.540;2023-08-24T11:29:07;8.13;;;6.05;;
40931;SDS011;36257;46.052;12.540;2023-08-24T11:31:34;6.72;;;6.10;;
40931;SDS011;36257;46.052;12.540;2023-08-24T11:34:00;7.18;;;5.88;;
40931;SDS011;36257;46.052;12.540;2023-08-24T11:36:26;9.03;;;5.80;;
40931;SDS011;36257;46.052;12.540;2023-08-24T11:38:53;7.22;;;5.93;;
40931;SDS011;36257;46.052;12.540;2023-08-24T11:41:21;7.03;;;5.57;;
40931;SDS011;36257;46.052;12.540;2023-08-24T11:43:47;6.23;;;5.63;;
40931;SDS011;36257;46.052;12.540;2023-08-24T11:46:15;6.82;;;5.75;;
40931;SDS011;36257;46.052;12.540;2023-08-24T11:48:44;9.10;;;6.00;;
40931;SDS011;36257;46.052;12.540;2023-08-24T11:51:11;7.47;;;6.38;;
40931;SDS011;36257;46.052;12.540;2023-08-24T11:53:41;7.40;;;6.05;;
40931;SDS011;36257;46.052;12.540;2023-08-24T11:56:08;6.43;;;5.82;;
40931;SDS011;36257;46.052;12.540;2023-08-24T11:58:37;10.70;;;6.30;;
40931;SDS011;36257;46.052;12.540;2023-08-24T12:01:04;7.22;;;6.18;;
40931;SDS011;36257;46.052;12.540;2023-08-24T12:03:30;6.63;;;6.03;;
40931;SDS011;36257;46.052;12.540;2023-08-24T12:05:59;9.75;;;5.80;;
40931;SDS011;36257;46.052;12.540;2023-08-24T12:08:26;7.10;;;6.00;;
40931;SDS011;36257;46.052;12.540;2023-08-24T12:10:52;7.63;;;5.73;;
40931;SDS011;36257;46.052;12.540;2023-08-24T12:13:17;6.83;;;6.03;;
40931;SDS011;36257;46.052;12.540;2023-08-24T12:15:43;8.10;;;6.17;;
40931;SDS011;36257;46.052;12.540;2023-08-24T12:18:13;6.22;;;5.53;;
40931;SDS011;36257;46.052;12.540;2023-08-24T12:20:40;9.55;;;6.22;;
40931;SDS011;36257;46.052;12.540;2023-08-24T12:23:06;8.98;;;6.07;;
40931;SDS011;36257;46.052;12.540;2023-08-24T12:28:12;7.22;;;5.78;;
40931;SDS011;36257;46.052;12.540;2023-08-24T12:33:21;6.47;;;4.90;;
40931;SDS011;36257;46.052;12.540;2023-08-24T12:35:52;8.02;;;5.20;;
40931;SDS011;36257;46.052;12.540;2023-08-24T12:40:44;7.15;;;5.25;;
40931;SDS011;36257;46.052;12.540;2023-08-24T12:43:10;5.90;;;5.33;;
40931;SDS011;36257;46.052;12.540;2023-08-24T12:45:39;5.38;;;4.97;;
40931;SDS011;36257;46.052;12.540;2023-08-24T12:48:05;6.65;;;5.95;;
40931;SDS011;36257;46.052;12.540;2023-08-24T12:50:32;6.32;;;5.30;;
40931;SDS011;36257;46.052;12.540;2023-08-24T12:53:01;5.50;;;4.88;;
40931;SDS011;36257;46.052;12.540;2023-08-24T12:55:28;7.20;;;5.20;;
40931;SDS011;36257;46.052;12.540;2023-08-24T12:57:57;5.80;;;5.20;;
40931;SDS011;36257;46.052;12.540;2023-08-24T13:00:23;6.38;;;5.82;;
40931;SDS011;36257;46.052;12.540;2023-08-24T13:02:49;8.20;;;5.70;;
40931;SDS011;36257;46.052;12.540;2023-08-24T13:05:15;5.50;;;5.00;;
40931;SDS011;36257;46.052;12.540;2023-08-24T13:10:07;8.13;;;5.55;;
40931;SDS011;36257;46.052;12.540;2023-08-24T13:12:34;5.72;;;5.22;;
40931;SDS011;36257;46.052;12.540;2023-08-24T13:17:27;6.55;;;5.65;;
40931;SDS011;36257;46.052;12.540;2023-08-24T13:19:54;7.03;;;5.68;;
40931;SDS011;36257;46.052;12.540;2023-08-24T13:22:20;8.17;;;5.47;;
40931;SDS011;36257;46.052;12.540;2023-08-24T13:24:46;5.67;;;5.20;;
40931;SDS011;36257;46.052;12.540;2023-08-24T13:27:12;7.53;;;5.63;;
40931;SDS011;36257;46.052;12.540;2023-08-24T13:29:37;6.67;;;5.03;;
40931;SDS011;36257;46.052;12.540;2023-08-24T13:32:03;6.90;;;5.73;;
40931;SDS011;36257;46.052;12.540;2023-08-24T13:34:30;6.38;;;5.22;;
40931;SDS011;36257;46.052;12.540;2023-08-24T13:36:56;6.38;;;5.30;;
40931;SDS011;36257;46.052;12.540;2023-08-24T13:39:23;6.75;;;5.88;;
40931;SDS011;36257;46.052;12.540;2023-08-24T13:41:55;6.50;;;5.30;;
40931;SDS011;36257;46.052;12.540;2023-08-24T13:44:21;6.45;;;5.93;;
40931;SDS011;36257;46.052;12.540;2023-08-24T13:46:47;7.07;;;5.85;;
40931;SDS011;36257;46.052;12.540;2023-08-24T13:49:13;5.93;;;5.40;;
40931;SDS011;36257;46.052;12.540;2023-08-24T13:51:38;6.93;;;5.53;;
40931;SDS011;36257;46.052;12.540;2023-08-24T13:54:13;6.00;;;5.50;;
40931;SDS011;36257;46.052;12.540;2023-08-24T13:56:40;8.20;;;5.97;;
40931;SDS011;36257;46.052;12.540;2023-08-24T13:59:05;7.67;;;6.20;;
40931;SDS011;36257;46.052;12.540;2023-08-24T14:01:31;7.57;;;6.27;;
40931;SDS011;36257;46.052;12.540;2023-08-24T14:03:57;6.13;;;5.57;;
40931;SDS011;36257;46.052;12.540;2023-08-24T14:06:22;7.90;;;6.10;;
40931;SDS011;36257;46.052;12.540;2023-08-24T14:08:48;7.10;;;6.40;;
40931;SDS011;36257;46.052;12.540;2023-08-24T14:11:14;9.40;;;6.33;;
40931;SDS011;36257;46.052;12.540;2023-08-24T14:13:41;7.65;;;6.28;;
40931;SDS011;36257;46.052;12.540;2023-08-24T14:16:07;8.97;;;5.50;;
40931;SDS011;36257;46.052;12.540;2023-08-24T14:18:32;6.70;;;6.03;;
40931;SDS011;36257;46.052;12.540;2023-08-24T14:21:01;9.55;;;6.20;;
40931;SDS011;36257;46.052;12.540;2023-08-24T14:23:27;7.53;;;5.95;;
40931;SDS011;36257;46.052;12.540;2023-08-24T14:25:53;7.63;;;6.77;;
40931;SDS011;36257;46.052;12.540;2023-08-24T14:28:19;6.97;;;6.20;;
40931;SDS011;36257;46.052;12.540;2023-08-24T14:30:47;7.93;;;6.40;;
40931;SDS011;36257;46.052;12.540;2023-08-24T14:33:16;8.43;;;6.35;;
40931;SDS011;36257;46.052;12.540;2023-08-24T14:35:51;8.93;;;6.25;;
40931;SDS011;36257;46.052;12.540;2023-08-24T14:38:17;7.28;;;6.57;;
40931;SDS011;36257;46.052;12.540;2023-08-24T14:40:44;7.88;;;6.03;;
40931;SDS011;36257;46.052;12.540;2023-08-24T14:43:11;6.72;;;5.72;;
40931;SDS011;36257;46.052;12.540;2023-08-24T14:45:36;6.10;;;5.60;;
40931;SDS011;36257;46.052;12.540;2023-08-24T14:48:02;6.80;;;6.10;;
40931;SDS011;36257;46.052;12.540;2023-08-24T14:50:28;7.93;;;5.63;;
40931;SDS011;36257;46.052;12.540;2023-08-24T14:52:54;6.73;;;6.07;;
40931;SDS011;36257;46.052;12.540;2023-08-24T14:55:19;7.63;;;6.50;;
40931;SDS011;36257;46.052;12.540;2023-08-24T14:57:45;6.50;;;5.80;;
40931;SDS011;36257;46.052;12.540;2023-08-24T15:00:11;6.30;;;5.70;;
40931;SDS011;36257;46.052;12.540;2023-08-24T15:02:37;7.15;;;6.55;;
40931;SDS011;36257;46.052;12.540;2023-08-24T15:05:03;9.00;;;6.37;;
40931;SDS011;36257;46.052;12.540;2023-08-24T15:07:30;7.25;;;6.30;;
40931;SDS011;36257;46.052;12.540;2023-08-24T15:09:55;8.30;;;5.95;;
40931;SDS011;36257;46.052;12.540;2023-08-24T15:12:21;6.97;;;6.27;;
40931;SDS011;36257;46.052;12.540;2023-08-24T15:15:00;7.43;;;6.70;;
40931;SDS011;36257;46.052;12.540;2023-08-24T15:17:31;9.32;;;6.85;;
40931;SDS011;36257;46.052;12.540;2023-08-24T15:19:57;8.27;;;6.28;;
40931;SDS011;36257;46.052;12.540;2023-08-24T15:22:23;7.07;;;6.33;;
40931;SDS011;36257;46.052;12.540;2023-08-24T15:24:50;8.30;;;6.50;;
40931;SDS011;36257;46.052;12.540;2023-08-24T15:27:16;9.50;;;6.47;;
40931;SDS011;36257;46.052;12.540;2023-08-24T15:29:43;7.70;;;6.90;;
40931;SDS011;36257;46.052;12.540;2023-08-24T15:32:09;8.23;;;6.73;;
40931;SDS011;36257;46.052;12.540;2023-08-24T15:37:21;6.00;;;5.50;;
40931;SDS011;36257;46.052;12.540;2023-08-24T15:39:46;6.80;;;6.17;;
40931;SDS011;36257;46.052;12.540;2023-08-24T15:42:12;7.43;;;6.73;;
40931;SDS011;36257;46.052;12.540;2023-08-24T15:44:38;7.70;;;7.00;;
40931;SDS011;36257;46.052;12.540;2023-08-24T15:47:03;7.33;;;6.57;;
40931;SDS011;36257;46.052;12.540;2023-08-24T15:49:29;7.93;;;6.37;;